Time;durP1;ratioP1;P1;durP2;ratioP2;P2;SDS_P1;SDS_P2;PMS_P1;PMS_P2;Temp;Humidity;BMP_temperature;BMP_pressure;BME280_temperature;BME280_humidity;BME280_pressure;Samples;Min_cycle;Max_cycle;Signal;HPM_P1;HPM_P2
2022/01/25 00:29:29;;;;;;;37.10;16.92;;;-2.50;94.20;;;;;;5042609;28;20036;-68
2022/01/25 00:31:35;;;;;;;30.60;16.42;;;-2.50;93.70;;;;;;5041410;28;20044;-68
2022/01/25 00:34:02;;;;;;;33.00;15.18;;;-2.50;93.30;;;;;;5036500;28;20033;-68
2022/01/25 00:36:28;;;;;;;32.13;15.48;;;-2.50;93.60;;;;;;5036031;28;20108;-68
2022/01/25 00:38:55;;;;;;;30.02;15.38;;;-2.60;93.90;;;;;;5045331;28;20116;-68
2022/01/25 00:41:22;;;;;;;36.47;18.35;;;-2.70;94.00;;;;;;5037086;28;20044;-68
2022/01/25 00:43:50;;;;;;;36.53;16.83;;;-2.90;94.90;;;;;;5047458;28;20340;-68
2022/01/25 00:46:19;;;;;;;31.63;15.18;;;-3.10;94.80;;;;;;5036094;28;20100;-67
2022/01/25 00:48:48;;;;;;;31.77;15.48;;;-3.20;93.60;;;;;;5039972;28;20048;-67
2022/01/25 00:54:01;;;;;;;28.13;15.55;;;-2.80;92.30;;;;;;5037621;28;20060;-67
2022/01/25 00:56:38;;;;;;;36.08;18.17;;;-2.70;93.00;;;;;;5050442;28;20024;-68
2022/01/25 00:59:07;;;;;;;42.45;18.17;;;-2.80;93.00;;;;;;5051057;28;20445;-68
2022/01/25 01:01:35;;;;;;;29.42;15.25;;;-2.80;92.60;;;;;;5043847;28;20069;-67
2022/01/25 01:04:01;;;;;;;33.03;15.65;;;-2.70;92.00;;;;;;5049852;28;20022;-68
2022/01/25 01:06:27;;;;;;;25.02;12.90;;;-2.60;91.70;;;;;;5045244;28;20120;-68
2022/01/25 01:08:54;;;;;;;24.02;13.52;;;-2.50;91.90;;;;;;5045829;28;20478;-68
2022/01/25 01:11:30;;;;;;;28.73;14.32;;;-2.50;92.40;;;;;;5050803;28;20322;-67
2022/01/25 01:44:10;;;;;;;;;;;-2.80;93.70;;;;;;5054418;28;20377;-68
2022/01/25 01:46:57;;;;;;;21.42;11.27;;;-2.80;93.00;;;;;;5047163;28;19909;-67
2022/01/25 01:49:25;;;;;;;33.47;16.08;;;-2.90;92.90;;;;;;5059662;28;20381;-68
2022/01/25 01:51:50;;;;;;;37.00;17.60;;;-2.90;92.70;;;;;;5048155;28;20029;-68
2022/01/25 01:54:16;;;;;;;32.05;16.40;;;-2.90;92.90;;;;;;5052504;28;20162;-68
2022/01/25 01:56:43;;;;;;;36.08;17.80;;;-2.90;92.70;;;;;;5044361;28;20318;-67
2022/01/25 01:59:12;;;;;;;27.70;14.30;;;-2.90;92.50;;;;;;5047175;28;20042;-68
2022/01/25 02:01:40;;;;;;;37.50;18.08;;;-2.80;92.20;;;;;;5042002;28;20029;-67
2022/01/25 02:04:07;;;;;;;34.25;16.17;;;-2.80;92.20;;;;;;5039432;28;20051;-68
2022/01/25 02:06:33;;;;;;;33.67;15.10;;;-3.00;93.50;;;;;;5043769;28;20448;-67
2022/01/25 02:08:59;;;;;;;32.45;16.13;;;-3.00;92.70;;;;;;5045917;28;20048;-68
2022/01/25 02:11:25;;;;;;;35.72;16.23;;;-3.00;92.30;;;;;;5050694;28;20025;-67
2022/01/25 02:13:52;;;;;;;40.47;16.50;;;-2.90;91.80;;;;;;5045994;28;20037;-68
2022/01/25 02:22:31;;;;;;;33.08;15.57;;;-2.80;92.20;;;;;;5061657;28;20321;-68
2022/01/25 02:24:57;;;;;;;23.70;12.23;;;-2.80;92.10;;;;;;5047977;28;20068;-68
2022/01/25 02:27:23;;;;;;;28.02;13.23;;;-2.90;92.40;;;;;;5053785;28;20477;-67
2022/01/25 02:29:48;;;;;;;24.38;12.65;;;-2.90;92.20;;;;;;5049947;28;20044;-68
2022/01/25 02:32:14;;;;;;;22.42;12.00;;;-2.80;91.30;;;;;;5043459;28;20037;-66
2022/01/25 02:34:41;;;;;;;29.27;14.05;;;-2.80;91.60;;;;;;5041160;28;20025;-67
2022/01/25 02:37:12;;;;;;;36.80;16.23;;;-2.70;91.20;;;;;;5052578;28;20083;-66
2022/01/25 02:39:42;;;;;;;29.90;14.13;;;-2.60;91.30;;;;;;5047016;28;20044;-67
2022/01/25 02:42:09;;;;;;;21.77;11.15;;;-2.60;91.70;;;;;;5048728;28;20045;-68
2022/01/25 02:44:36;;;;;;;32.65;14.35;;;-2.60;91.80;;;;;;5064593;28;20107;-68
2022/01/25 02:49:32;;;;;;;34.97;18.02;;;-2.80;92.90;;;;;;5039921;28;20425;-68
2022/01/25 02:52:00;;;;;;;32.30;16.60;;;-3.00;93.10;;;;;;5055346;28;20379;-67
2022/01/25 02:54:26;;;;;;;32.63;16.05;;;-3.00;92.20;;;;;;5035856;28;20033;-68
2022/01/25 02:56:52;;;;;;;33.75;17.02;;;-3.00;92.30;;;;;;5037534;28;20036;-66
2022/01/25 02:59:18;;;;;;;33.78;16.92;;;-2.90;92.40;;;;;;5054869;28;20020;-68
2022/01/25 03:01:46;;;;;;;37.50;16.70;;;-3.00;93.10;;;;;;5037304;28;20441;-66
2022/01/25 03:04:13;;;;;;;31.55;16.95;;;-3.10;92.60;;;;;;5042691;28;20025;-66
2022/01/25 03:06:42;;;;;;;35.63;16.67;;;-3.00;92.40;;;;;;5040938;28;20021;-67
2022/01/25 03:09:07;;;;;;;24.95;13.43;;;-3.00;92.80;;;;;;5043054;28;20021;-67
2022/01/25 03:11:34;;;;;;;26.70;13.50;;;-3.00;92.20;;;;;;5047325;28;20033;-67
2022/01/25 03:14:03;;;;;;;31.30;13.70;;;-3.00;91.90;;;;;;5046946;28;20311;-68
2022/01/25 03:16:44;;;;;;;22.80;11.98;;;-3.00;92.40;;;;;;5045764;28;20318;-67
2022/01/25 03:22:43;;;;;;;25.02;13.43;;;-3.10;92.30;;;;;;5041389;28;20163;-67
2022/01/25 03:25:05;;;;;;;31.20;13.45;;;-2.90;91.70;;;;;;5002792;28;1145614;-67
2022/01/25 03:27:31;;;;;;;29.50;13.80;;;-2.90;91.80;;;;;;5047810;28;20060;-66
2022/01/25 03:29:56;;;;;;;23.95;12.10;;;-2.70;92.00;;;;;;5042076;28;20049;-67
2022/01/25 03:32:22;;;;;;;25.40;13.32;;;-2.80;92.70;;;;;;5044986;28;20029;-65
2022/01/25 03:34:48;;;;;;;28.08;13.10;;;-2.80;92.00;;;;;;5044441;28;20032;-67
2022/01/25 03:37:13;;;;;;;27.77;14.40;;;-2.80;92.00;;;;;;5041882;28;20315;-67
2022/01/25 03:39:39;;;;;;;31.60;14.90;;;-2.80;92.10;;;;;;5050766;28;20040;-67
2022/01/25 03:42:08;;;;;;;28.00;14.95;;;-2.70;92.20;;;;;;5040339;28;20319;-67
2022/01/25 03:44:34;;;;;;;28.65;15.35;;;-2.70;92.30;;;;;;5051530;28;20036;-67
2022/01/25 03:47:08;;;;;;;29.65;15.90;;;-2.70;92.80;;;;;;5043707;28;20029;-67
2022/01/25 03:49:52;;;;;;;;;;;-2.70;92.80;;;;;;5047204;28;20108;-67
2022/01/25 03:52:33;;;;;;;26.17;13.18;;;-2.70;92.80;;;;;;5042453;28;19916;-67
2022/01/25 03:54:59;;;;;;;28.35;15.27;;;-2.80;93.90;;;;;;5040437;28;20466;-67
2022/01/25 03:57:26;;;;;;;31.98;15.68;;;-3.00;94.30;;;;;;5042916;28;20063;-67
2022/01/25 03:59:52;;;;;;;30.75;15.23;;;-3.20;94.80;;;;;;5037678;28;20044;-67
2022/01/25 04:02:18;;;;;;;29.02;14.45;;;-3.40;94.50;;;;;;5042884;28;20061;-68
2022/01/25 04:04:47;;;;;;;28.13;14.80;;;-3.40;93.80;;;;;;5045477;28;20056;-67
2022/01/25 04:07:15;;;;;;;30.63;15.48;;;-3.30;92.20;;;;;;5039971;28;20028;-66
2022/01/25 04:09:43;;;;;;;26.15;13.55;;;-3.10;92.40;;;;;;5054394;28;20044;-65
2022/01/25 04:12:10;;;;;;;23.10;13.18;;;-2.90;92.60;;;;;;5070955;28;20032;-65
2022/01/25 04:14:35;;;;;;;24.77;11.93;;;-2.90;93.00;;;;;;5043001;28;20021;-66
2022/01/25 04:17:07;;;;;;;21.33;11.68;;;-2.90;93.80;;;;;;5040864;28;20183;-66
2022/01/25 04:25:03;;;;;;;54.42;26.55;;;-3.20;93.50;;;;;;5037281;28;20179;-68
2022/01/25 04:27:30;;;;;;;92.72;46.58;;;-3.10;93.40;;;;;;5042505;28;20032;-67
2022/01/25 04:29:56;;;;;;;32.78;17.58;;;-3.10;93.10;;;;;;5049836;28;20025;-67
2022/01/25 04:32:32;;;;;;;26.17;12.68;;;-3.10;93.40;;;;;;5043710;28;20040;-66
2022/01/25 04:35:11;;;;;;;24.73;13.20;;;-3.10;93.30;;;;;;5047438;28;20029;-67
2022/01/25 04:56:47;;;;;;;26.70;13.35;;;-3.20;93.60;;;;;;5050235;28;20040;-67
2022/01/25 04:59:22;;;;;;;23.85;12.48;;;-3.10;93.30;;;;;;5041369;28;20044;-67
2022/01/25 05:01:50;;;;;;;22.25;11.77;;;-3.00;93.70;;;;;;5043521;28;20029;-66
2022/01/25 05:04:23;;;;;;;23.88;11.60;;;-2.90;94.30;;;;;;5039194;28;20025;-67
2022/01/25 05:06:52;;;;;;;21.15;10.98;;;-2.90;94.10;;;;;;5045427;28;20028;-68
2022/01/25 05:09:20;;;;;;;21.13;11.13;;;-2.90;94.60;;;;;;5040236;28;20036;-67
2022/01/25 05:11:48;;;;;;;21.40;11.07;;;-3.00;94.90;;;;;;5041446;28;20113;-68
2022/01/25 05:14:24;;;;;;;22.58;11.57;;;-3.10;94.70;;;;;;5038086;28;20493;-67
2022/01/25 05:17:00;;;;;;;24.40;12.90;;;-3.10;94.40;;;;;;5038949;28;20087;-67
2022/01/25 05:24:53;;;;;;;24.88;13.88;;;-2.90;94.60;;;;;;5052037;28;20037;-68
2022/01/25 05:27:27;;;;;;;70.88;38.33;;;-2.90;95.30;;;;;;5049054;28;20071;-66
2022/01/25 05:29:52;;;;;;;;;;;-3.00;95.60;;;;;;5052139;28;20084;-66
2022/01/25 05:32:18;;;;;;;46.83;23.48;;;-3.00;95.70;;;;;;5040446;28;19913;-67
2022/01/25 05:34:43;;;;;;;47.22;23.05;;;-3.20;96.50;;;;;;5048948;28;20029;-67
2022/01/25 05:37:09;;;;;;;38.03;21.45;;;-3.40;96.60;;;;;;5053151;28;20037;-67
2022/01/25 05:39:37;;;;;;;46.80;27.10;;;-3.60;96.30;;;;;;5040800;28;20028;-67
2022/01/25 05:44:54;;;;;;;31.67;17.30;;;-3.80;95.60;;;;;;5049477;28;20374;-67
2022/01/25 05:47:26;;;;;;;31.08;16.35;;;-3.80;94.90;;;;;;5047848;28;20064;-68
2022/01/25 05:49:52;;;;;;;37.08;21.70;;;-3.80;95.90;;;;;;5042385;28;20052;-67
2022/01/25 05:52:17;;;;;;;37.45;20.50;;;-3.90;95.40;;;;;;5041965;28;20073;-68
2022/01/25 05:54:43;;;;;;;28.55;16.55;;;-3.90;95.70;;;;;;5046613;28;20036;-69
2022/01/25 05:57:09;;;;;;;31.50;16.73;;;-3.90;95.90;;;;;;5049650;28;20147;-66
2022/01/25 05:59:37;;;;;;;30.35;15.73;;;-4.00;96.10;;;;;;5045287;28;20029;-67
2022/01/25 06:02:17;;;;;;;31.40;15.70;;;-4.10;95.90;;;;;;5044423;28;20041;-67
2022/01/25 06:04:42;;;;;;;27.42;15.80;;;-4.10;96.10;;;;;;5040445;28;20021;-67
2022/01/25 06:07:08;;;;;;;29.88;15.32;;;-4.20;96.10;;;;;;5039075;28;20041;-68
2022/01/25 06:09:34;;;;;;;27.83;15.82;;;-4.20;96.40;;;;;;5034994;28;20030;-66
2022/01/25 06:11:59;;;;;;;26.80;14.40;;;-4.20;96.30;;;;;;5054589;28;20028;-66
2022/01/25 06:14:27;;;;;;;30.25;16.92;;;-4.20;95.90;;;;;;5054234;28;20418;-66
2022/01/25 06:16:55;;;;;;;38.50;20.40;;;-4.20;96.60;;;;;;5056558;28;20029;-65
2022/01/25 06:19:20;;;;;;;45.38;25.10;;;-4.30;96.00;;;;;;5047758;28;20108;-67
2022/01/25 06:21:46;;;;;;;61.50;33.38;;;-4.30;96.00;;;;;;5040644;28;20176;-68
2022/01/25 06:24:12;;;;;;;78.78;41.80;;;-4.20;96.30;;;;;;5049449;28;20507;-67
2022/01/25 06:26:37;;;;;;;74.05;39.95;;;-4.30;96.50;;;;;;5045686;28;20029;-67
2022/01/25 06:29:03;;;;;;;59.08;32.72;;;-4.30;96.40;;;;;;5045164;28;20060;-67
2022/01/25 06:31:31;;;;;;;57.88;31.58;;;-4.30;96.30;;;;;;5055118;28;20418;-67
2022/01/25 06:33:57;;;;;;;44.75;24.63;;;-4.40;96.80;;;;;;5049375;28;20028;-68
2022/01/25 06:36:25;;;;;;;46.85;24.45;;;-4.40;97.00;;;;;;5054398;28;20322;-67
2022/01/25 06:38:54;;;;;;;60.50;32.10;;;-4.50;96.90;;;;;;5040062;28;20033;-67
2022/01/25 06:41:20;;;;;;;76.35;42.22;;;-4.50;96.50;;;;;;5039232;28;20045;-67
2022/01/25 06:43:46;;;;;;;91.53;48.40;;;-4.40;96.70;;;;;;5040014;28;20030;-68
2022/01/25 06:46:12;;;;;;;94.80;50.33;;;-4.40;97.10;;;;;;5038099;28;20026;-68
2022/01/25 06:48:41;;;;;;;79.15;44.28;;;-4.50;97.10;;;;;;5039644;28;20034;-67
2022/01/25 06:51:06;;;;;;;46.03;25.35;;;-4.50;96.90;;;;;;5040049;28;20028;-67
2022/01/25 06:53:32;;;;;;;37.22;19.23;;;-4.50;96.20;;;;;;5037576;28;20033;-67
2022/01/25 06:56:01;;;;;;;32.85;18.17;;;-4.40;96.40;;;;;;5049153;28;20103;-66
2022/01/25 06:58:27;;;;;;;31.45;17.55;;;-4.40;96.70;;;;;;5045662;28;20060;-67
2022/01/25 07:00:55;;;;;;;31.60;16.83;;;-4.40;96.70;;;;;;5051455;28;20064;-66
2022/01/25 07:03:27;;;;;;;28.02;14.93;;;-4.40;96.90;;;;;;5041537;28;20035;-66
2022/01/25 07:05:55;;;;;;;29.48;16.42;;;-4.30;96.60;;;;;;5057403;28;20372;-65
2022/01/25 07:08:20;;;;;;;31.55;15.80;;;-4.30;96.60;;;;;;5049023;28;20028;-65
2022/01/25 07:10:46;;;;;;;28.33;14.13;;;-4.20;96.20;;;;;;5054606;28;20025;-65
2022/01/25 07:13:12;;;;;;;26.80;14.82;;;-4.20;96.00;;;;;;5038360;28;20034;-67
2022/01/25 07:15:44;;;;;;;26.10;14.13;;;-4.10;96.20;;;;;;5041147;28;20026;-67
2022/01/25 07:18:09;;;;;;;23.48;13.15;;;-4.00;96.20;;;;;;5042583;28;20107;-67
2022/01/25 07:20:38;;;;;;;28.65;15.18;;;-4.00;96.10;;;;;;5046707;28;20430;-67
2022/01/25 07:23:03;;;;;;;27.85;14.00;;;-3.80;96.20;;;;;;5040477;28;20359;-67
2022/01/25 07:25:29;;;;;;;27.70;13.88;;;-3.70;97.20;;;;;;5041158;28;20095;-68
2022/01/25 07:27:55;;;;;;;28.00;12.90;;;-3.70;97.70;;;;;;5036332;28;20021;-67
2022/01/25 07:30:20;;;;;;;30.65;18.15;;;-3.60;97.90;;;;;;5041608;28;20025;-66
2022/01/25 07:32:46;;;;;;;34.72;19.13;;;-3.50;97.90;;;;;;5056215;28;20025;-65
2022/01/25 07:35:12;;;;;;;28.52;14.98;;;-3.50;98.00;;;;;;5039954;28;20540;-67
2022/01/25 07:37:38;;;;;;;50.13;27.33;;;-3.60;98.00;;;;;;5052525;28;20030;-67
2022/01/25 07:40:04;;;;;;;67.32;39.13;;;-3.60;98.00;;;;;;5039819;28;20029;-66
2022/01/25 07:42:34;;;;;;;63.80;38.15;;;-3.70;98.00;;;;;;5053470;28;20022;-67
2022/01/25 07:44:59;;;;;;;77.82;37.63;;;-3.80;98.00;;;;;;5039151;28;20022;-67
2022/01/25 07:47:25;;;;;;;83.97;38.47;;;-3.80;98.00;;;;;;5047244;28;20315;-67
2022/01/25 07:49:54;;;;;;;71.07;36.00;;;-3.80;98.00;;;;;;5048863;28;20021;-67
2022/01/25 07:52:19;;;;;;;70.60;34.60;;;-3.90;98.00;;;;;;5046193;28;20423;-67
2022/01/25 07:54:45;;;;;;;58.30;28.98;;;-3.90;98.00;;;;;;5050301;28;20036;-66
2022/01/25 07:57:10;;;;;;;39.00;21.63;;;-3.90;98.00;;;;;;5038839;28;20029;-67
2022/01/25 07:59:36;;;;;;;32.92;19.10;;;-3.90;97.90;;;;;;5050882;28;20033;-67
2022/01/25 08:02:02;;;;;;;26.75;14.82;;;-3.70;97.70;;;;;;5051783;28;20038;-66
2022/01/25 08:04:28;;;;;;;32.15;16.05;;;-3.70;97.70;;;;;;5038689;28;20057;-67
2022/01/25 08:06:53;;;;;;;29.83;16.48;;;-3.60;97.50;;;;;;5044386;28;20029;-67
2022/01/25 08:09:19;;;;;;;34.17;17.30;;;-3.40;98.00;;;;;;5054447;28;20033;-67
2022/01/25 08:11:45;;;;;;;34.00;17.52;;;-3.40;98.00;;;;;;5055316;28;20020;-66
2022/01/25 08:14:16;;;;;;;33.65;18.52;;;-3.30;98.00;;;;;;5076601;28;20328;-67
2022/01/25 08:16:45;;;;;;;34.65;17.48;;;-3.20;98.00;;;;;;5042566;28;20025;-68
2022/01/25 08:19:11;;;;;;;32.50;16.65;;;-3.00;98.00;;;;;;5038711;28;20037;-67
2022/01/25 08:21:37;;;;;;;38.63;19.27;;;-2.90;98.00;;;;;;5048836;28;20487;-66
2022/01/25 08:24:04;;;;;;;38.50;19.15;;;-2.80;98.00;;;;;;5046087;28;20037;-67
2022/01/25 08:26:32;;;;;;;38.33;19.27;;;-2.60;98.00;;;;;;5034948;28;20618;-67
2022/01/25 08:28:58;;;;;;;38.20;19.08;;;-2.50;98.00;;;;;;5036955;28;20030;-67
2022/01/25 08:31:24;;;;;;;36.08;18.80;;;-2.40;98.00;;;;;;5036293;28;20022;-67
2022/01/25 08:33:49;;;;;;;32.25;17.63;;;-2.20;98.00;;;;;;5034740;28;20035;-69
2022/01/25 08:36:15;;;;;;;40.95;21.42;;;-2.00;98.00;;;;;;5039024;28;20046;-66
2022/01/25 08:38:41;;;;;;;31.23;16.65;;;-1.80;98.00;;;;;;5036013;28;20017;-68
2022/01/25 08:41:07;;;;;;;29.33;15.40;;;-1.50;98.00;;;;;;5039254;28;20419;-67
2022/01/25 08:43:34;;;;;;;24.67;14.27;;;-1.30;98.00;;;;;;5040228;28;20037;-67
2022/01/25 08:46:01;;;;;;;23.83;13.75;;;-0.40;98.00;;;;;;5040390;28;20025;-67
2022/01/25 08:48:26;;;;;;;21.98;12.73;;;1.10;98.00;;;;;;5035478;28;20021;-68
2022/01/25 08:50:52;;;;;;;19.83;11.45;;;2.20;98.00;;;;;;5045868;28;20524;-68
2022/01/25 08:53:18;;;;;;;20.90;12.60;;;3.00;98.00;;;;;;5035272;28;20407;-68
2022/01/25 08:55:44;;;;;;;19.38;11.35;;;4.00;98.00;;;;;;5035092;28;20033;-68
2022/01/25 08:58:10;;;;;;;21.42;12.70;;;5.20;95.40;;;;;;5035359;28;20021;-67
2022/01/25 09:00:35;;;;;;;19.17;11.73;;;5.30;89.70;;;;;;5039870;28;20100;-67
2022/01/25 09:03:01;;;;;;;18.25;11.48;;;5.10;88.50;;;;;;5041744;28;20439;-67
2022/01/25 09:05:29;;;;;;;17.85;11.13;;;5.40;88.10;;;;;;5052139;28;20402;-67
2022/01/25 09:07:57;;;;;;;15.30;9.43;;;5.80;87.80;;;;;;5052438;28;20100;-66
2022/01/25 09:10:26;;;;;;;14.80;9.32;;;6.40;88.70;;;;;;5051759;28;20329;-67
2022/01/25 09:12:52;;;;;;;16.98;10.82;;;6.80;85.70;;;;;;5040253;28;20021;-67
2022/01/25 09:15:18;;;;;;;17.40;11.90;;;7.50;84.10;;;;;;5041455;28;20156;-68
2022/01/25 09:17:43;;;;;;;17.58;11.18;;;8.30;84.70;;;;;;5038137;28;20375;-67
2022/01/25 09:20:10;;;;;;;18.40;11.75;;;9.00;80.60;;;;;;5048057;28;20025;-68
2022/01/25 09:22:36;;;;;;;25.50;15.65;;;9.30;78.70;;;;;;5036481;28;20171;-68
2022/01/25 09:25:02;;;;;;;25.85;14.10;;;8.70;75.10;;;;;;5048252;28;20128;-68
2022/01/25 09:27:28;;;;;;;21.08;12.65;;;8.10;79.20;;;;;;5049610;28;20018;-68
2022/01/25 09:29:54;;;;;;;25.83;13.18;;;7.60;79.60;;;;;;5035104;28;20020;-68
2022/01/25 09:32:22;;;;;;;17.83;12.10;;;7.40;79.60;;;;;;5033937;28;20057;-68
2022/01/25 09:34:49;;;;;;;19.38;12.45;;;7.50;80.20;;;;;;5034949;28;20029;-67
2022/01/25 09:37:17;;;;;;;17.23;11.38;;;8.00;78.20;;;;;;5035511;28;20025;-67
2022/01/25 09:39:43;;;;;;;19.83;11.88;;;8.30;76.20;;;;;;5037892;28;20025;-68
2022/01/25 09:42:10;;;;;;;18.42;12.00;;;8.20;75.50;;;;;;5036252;28;20086;-68
2022/01/25 09:44:37;;;;;;;19.05;11.60;;;8.50;76.20;;;;;;5046857;28;20331;-69
2022/01/25 09:47:04;;;;;;;17.08;11.30;;;9.00;74.30;;;;;;5036499;28;20025;-69
2022/01/25 09:49:31;;;;;;;18.60;11.77;;;8.90;73.00;;;;;;5039854;28;20021;-68
2022/01/25 09:52:01;;;;;;;22.05;11.73;;;8.70;74.10;;;;;;5048818;28;20086;-69
2022/01/25 09:54:27;;;;;;;22.08;11.75;;;8.40;74.70;;;;;;5042606;28;20087;-68
2022/01/25 09:56:53;;;;;;;18.42;12.00;;;8.20;74.30;;;;;;5049204;28;20452;-68
2022/01/25 09:59:22;;;;;;;18.38;12.10;;;8.00;74.50;;;;;;5052394;28;20107;-68
2022/01/25 10:01:58;;;;;;;17.33;11.38;;;7.90;75.90;;;;;;5040965;28;20025;-67
2022/01/25 10:04:36;;;;;;;18.27;12.55;;;9.10;74.20;;;;;;5046691;28;20362;-67
2022/01/25 10:07:04;;;;;;;19.52;11.65;;;9.30;72.10;;;;;;5040199;28;20068;-69
2022/01/25 10:09:32;;;;;;;17.70;11.30;;;9.40;72.20;;;;;;5039873;28;20437;-70
2022/01/25 10:12:15;;;;;;;19.60;11.48;;;9.60;71.70;;;;;;5056389;28;20031;-69
2022/01/25 10:14:53;;;;;;;20.48;12.23;;;9.50;72.20;;;;;;5053264;28;20162;-69
2022/01/25 10:17:45;;;;;;;19.23;13.02;;;10.10;70.90;;;;;;5046128;28;20036;-68
2022/01/25 10:20:40;;;;;;;20.95;12.80;;;10.30;69.70;;;;;;5044237;28;20045;-67
2022/01/25 10:23:18;;;;;;;22.50;14.23;;;9.90;70.90;;;;;;5047109;28;20026;-69
2022/01/25 10:25:47;;;;;;;24.88;14.30;;;9.60;71.30;;;;;;5027347;28;20068;-68
2022/01/25 10:28:15;;;;;;;19.75;12.60;;;9.50;72.00;;;;;;5026295;28;20685;-68
2022/01/25 10:30:56;;;;;;;20.00;12.75;;;8.90;73.10;;;;;;5027765;28;20025;-68
2022/01/25 10:33:39;;;;;;;19.13;11.02;;;8.90;74.00;;;;;;5024486;28;20084;-69
2022/01/25 10:36:19;;;;;;;16.65;10.75;;;9.00;74.00;;;;;;5026119;28;20030;-68
2022/01/25 10:38:48;;;;;;;14.15;8.63;;;9.40;73.20;;;;;;5023389;28;20174;-68
2022/01/25 10:41:25;;;;;;;17.92;10.48;;;9.70;72.00;;;;;;5024618;28;20060;-68
2022/01/25 10:43:53;;;;;;;14.27;9.20;;;9.80;71.90;;;;;;5025431;28;20037;-68
2022/01/25 10:46:30;;;;;;;14.07;9.93;;;9.90;71.50;;;;;;5023315;28;20104;-68
2022/01/25 10:48:57;;;;;;;15.90;9.65;;;10.00;69.80;;;;;;5023226;28;20028;-69
2022/01/25 10:51:28;;;;;;;18.25;9.77;;;10.10;69.30;;;;;;5024218;28;20100;-68
2022/01/25 10:54:10;;;;;;;17.73;10.27;;;10.60;69.70;;;;;;5025647;28;20022;-69
2022/01/25 10:56:41;;;;;;;15.75;8.02;;;10.80;68.90;;;;;;5026443;28;20029;-68
2022/01/25 10:59:09;;;;;;;13.93;7.88;;;11.30;68.80;;;;;;5023488;28;20025;-70
2022/01/25 11:01:50;;;;;;;9.98;6.63;;;12.50;67.20;;;;;;5023123;28;20022;-68
2022/01/25 11:04:18;;;;;;;8.65;5.65;;;13.40;64.70;;;;;;5025326;28;20034;-70
2022/01/25 11:06:52;;;;;;;8.30;5.22;;;13.70;63.90;;;;;;5024025;28;20366;-70
2022/01/25 11:09:18;;;;;;;8.32;5.47;;;13.00;64.00;;;;;;5024577;28;20312;-70
2022/01/25 11:11:52;;;;;;;10.13;5.10;;;12.80;65.80;;;;;;5026428;28;20025;-69
2022/01/25 11:17:06;;;;;;;9.48;5.65;;;11.90;67.00;;;;;;5025686;28;20112;-68
2022/01/25 11:19:32;;;;;;;8.75;4.53;;;11.20;68.20;;;;;;5025862;28;20064;-68
2022/01/25 11:21:59;;;;;;;11.48;5.00;;;12.00;67.10;;;;;;5028131;28;20058;-68
2022/01/25 11:24:29;;;;;;;9.15;5.25;;;12.60;65.70;;;;;;5035430;28;21516;-69
2022/01/25 11:26:55;;;;;;;8.10;4.97;;;12.50;64.20;;;;;;5043290;28;20361;-69
2022/01/25 11:29:21;;;;;;;9.32;4.97;;;12.80;65.10;;;;;;5042704;28;20028;-68
2022/01/25 11:31:54;;;;;;;8.90;4.90;;;12.30;65.00;;;;;;5042271;28;20021;-69
2022/01/25 11:34:26;;;;;;;8.80;5.38;;;12.00;66.00;;;;;;5044396;28;20099;-68
2022/01/25 11:36:57;;;;;;;15.45;8.48;;;11.80;66.70;;;;;;5043594;28;20017;-69
2022/01/25 11:39:27;;;;;;;12.52;7.57;;;11.40;67.50;;;;;;5044401;28;20044;-67
2022/01/25 11:42:25;;;;;;;12.15;7.28;;;11.10;68.20;;;;;;5045364;28;20026;-67
2022/01/25 11:44:56;;;;;;;13.07;7.45;;;11.00;68.40;;;;;;5045234;28;20025;-68
2022/01/25 11:47:31;;;;;;;13.82;7.07;;;10.70;68.70;;;;;;5042782;28;20053;-69
2022/01/25 11:50:00;;;;;;;14.88;7.65;;;10.80;70.40;;;;;;5044176;28;20024;-69
2022/01/25 11:52:29;;;;;;;12.75;7.30;;;11.20;70.30;;;;;;5058836;28;20037;-69
2022/01/25 11:55:17;;;;;;;11.82;7.20;;;11.70;67.90;;;;;;5043733;28;20025;-69
2022/01/25 11:57:53;;;;;;;9.75;6.43;;;11.10;68.30;;;;;;5042418;28;20041;-68
2022/01/25 12:00:35;;;;;;;12.95;6.90;;;11.30;69.20;;;;;;5045797;28;20039;-68
2022/01/25 12:03:04;;;;;;;13.35;7.35;;;12.00;67.80;;;;;;5043341;28;20033;-68
2022/01/25 12:05:33;;;;;;;15.20;7.97;;;11.40;68.10;;;;;;5041564;28;20041;-69
2022/01/25 12:08:11;;;;;;;13.93;8.18;;;11.00;68.80;;;;;;5043496;28;20540;-69
2022/01/25 12:10:43;;;;;;;12.65;7.85;;;11.30;68.30;;;;;;5043902;28;20025;-69
2022/01/25 12:13:17;;;;;;;14.30;8.48;;;12.00;67.10;;;;;;5043780;28;20029;-69
2022/01/25 12:15:44;;;;;;;14.23;8.27;;;12.30;67.20;;;;;;5040731;28;20759;-69
2022/01/25 12:18:48;;;;;;;14.52;8.27;;;12.00;67.30;;;;;;5038910;28;20048;-68
2022/01/25 12:21:13;;;;;;;13.93;7.75;;;11.40;68.10;;;;;;5039718;28;20021;-68
2022/01/25 12:23:46;;;;;;;11.90;7.30;;;11.10;69.40;;;;;;5043689;28;20056;-68
2022/01/25 12:26:33;;;;;;;13.82;8.55;;;11.10;69.60;;;;;;5044606;28;20196;-69
2022/01/25 12:29:34;;;;;;;13.75;8.25;;;10.90;69.80;;;;;;5060817;28;20048;-70
2022/01/25 12:32:24;;;;;;;14.80;8.55;;;10.90;69.90;;;;;;5044424;28;20091;-69
2022/01/25 12:35:05;;;;;;;13.27;8.10;;;10.70;69.70;;;;;;5043688;28;20025;-70
2022/01/25 12:37:43;;;;;;;14.05;8.63;;;11.00;70.00;;;;;;5043974;28;20040;-69
2022/01/25 12:40:31;;;;;;;14.45;8.05;;;10.80;70.40;;;;;;5038924;28;20033;-69
2022/01/25 12:43:09;;;;;;;12.23;7.50;;;11.10;71.70;;;;;;5042241;28;20139;-69
2022/01/25 12:45:43;;;;;;;14.02;7.80;;;11.00;70.30;;;;;;5042447;28;20021;-68
2022/01/25 12:48:11;;;;;;;16.88;8.57;;;10.70;70.70;;;;;;5041086;28;20075;-69
2022/01/25 12:50:39;;;;;;;15.63;8.52;;;10.30;72.10;;;;;;5059212;28;20049;-68
2022/01/25 12:53:10;;;;;;;13.43;8.10;;;10.10;72.80;;;;;;5042131;28;20025;-68
2022/01/25 12:55:40;;;;;;;13.82;7.93;;;10.40;71.40;;;;;;5043573;28;20056;-67
2022/01/25 12:58:06;;;;;;;15.25;8.75;;;10.70;71.30;;;;;;5039859;28;20423;-68
2022/01/25 13:00:43;;;;;;;13.35;8.32;;;10.50;71.30;;;;;;5042692;28;20094;-68
2022/01/25 13:03:17;;;;;;;15.23;9.43;;;10.50;72.00;;;;;;5042084;28;20021;-70
2022/01/25 13:05:49;;;;;;;15.68;9.57;;;10.70;70.90;;;;;;5043449;28;20326;-70
2022/01/25 13:08:25;;;;;;;15.23;9.50;;;10.70;72.40;;;;;;5057465;28;20308;-68
2022/01/25 13:10:54;;;;;;;15.88;10.07;;;10.60;73.10;;;;;;5042995;28;20029;-69
2022/01/25 13:13:43;;;;;;;14.55;8.95;;;10.30;73.60;;;;;;5039483;28;20036;-68
2022/01/25 13:16:09;;;;;;;16.30;10.95;;;10.00;74.00;;;;;;5043211;28;20056;-69
2022/01/25 13:18:42;;;;;;;20.55;11.82;;;9.80;74.90;;;;;;5041705;28;20061;-69
2022/01/25 13:21:13;;;;;;;17.73;10.98;;;9.70;75.60;;;;;;5043212;28;20021;-68
2022/01/25 13:23:50;;;;;;;16.52;9.30;;;9.70;75.20;;;;;;5043537;28;20053;-69
2022/01/25 13:26:17;;;;;;;14.82;9.23;;;9.90;73.10;;;;;;5050905;28;20410;-68
2022/01/25 13:31:16;;;;;;;16.88;10.77;;;10.10;72.70;;;;;;5047408;28;20021;-69
2022/01/25 13:33:42;;;;;;;17.73;10.50;;;9.70;73.50;;;;;;5047573;28;20038;-69
2022/01/25 13:36:08;;;;;;;25.88;14.20;;;9.50;74.00;;;;;;5048062;28;20132;-69
2022/01/25 13:38:37;;;;;;;19.77;12.25;;;9.10;75.30;;;;;;5043591;28;20029;-70
2022/01/25 13:46:36;;;;;;;20.95;12.80;;;8.90;75.50;;;;;;5045031;28;20104;-68
2022/01/25 13:49:15;;;;;;;18.90;11.82;;;8.60;76.90;;;;;;5044146;28;20028;-69
2022/01/25 13:51:48;;;;;;;20.83;11.38;;;8.60;76.00;;;;;;5046997;28;20017;-69
2022/01/25 13:54:17;;;;;;;18.90;12.27;;;8.40;75.80;;;;;;5045275;28;20049;-68
2022/01/25 13:56:44;;;;;;;22.17;14.40;;;8.40;77.10;;;;;;5046126;28;20029;-69
2022/01/25 13:59:10;;;;;;;24.88;15.00;;;8.30;78.10;;;;;;5046461;28;20052;-68
2022/01/25 14:01:40;;;;;;;21.05;12.82;;;8.20;78.10;;;;;;5048170;28;20150;-68
2022/01/25 14:04:25;;;;;;;18.52;10.63;;;8.00;77.70;;;;;;5042277;28;20048;-67
2022/01/25 14:06:56;;;;;;;21.92;12.77;;;8.10;77.90;;;;;;5048306;28;20112;-69
2022/01/25 14:09:30;;;;;;;23.58;14.60;;;8.00;77.70;;;;;;5047591;28;20025;-70
2022/01/25 14:23:21;;;;;;;24.42;13.40;;;7.00;81.60;;;;;;5048294;28;20066;-69
2022/01/25 14:25:46;;;;;;;20.52;13.63;;;7.00;80.40;;;;;;5040741;28;20038;-69
2022/01/25 14:28:15;;;;;;;21.38;13.18;;;7.00;81.50;;;;;;5051153;28;20040;-69
2022/01/25 14:30:46;;;;;;;16.88;11.55;;;7.00;81.30;;;;;;5045001;28;20030;-69
2022/01/25 14:33:37;;;;;;;21.20;12.00;;;7.00;80.90;;;;;;5042585;28;20112;-68
2022/01/25 14:36:08;;;;;;;18.83;12.10;;;7.10;81.20;;;;;;5059845;28;20036;-71
2022/01/25 14:38:39;;;;;;;19.05;12.52;;;7.00;80.70;;;;;;5064032;28;20322;-68
2022/01/25 14:41:23;;;;;;;21.13;14.07;;;7.00;81.10;;;;;;5058574;28;20376;-68
2022/01/25 14:44:22;;;;;;;23.38;14.93;;;7.00;82.10;;;;;;5058304;28;20029;-68
2022/01/25 14:46:52;;;;;;;21.65;13.73;;;6.60;82.80;;;;;;5042857;28;20080;-68
2022/01/25 14:49:26;;;;;;;24.67;14.43;;;6.30;84.40;;;;;;5040645;28;20017;-68
2022/01/25 14:51:55;;;;;;;20.83;13.20;;;6.20;85.70;;;;;;5039960;28;20029;-68
2022/01/25 14:54:34;;;;;;;22.15;13.73;;;6.30;84.80;;;;;;5041708;28;20318;-69